Main page
METAR-TAF:

METAR-TAF

Airports :

RNAS Yeovilton (HMS Heron)

Yeovilton, England

latitude: 51-00N, longitude: 002-38W, elevation: 23 m

Current weather observation

The report was made 32 minutes ago, at 23:20 UTC
Wind 5 kt from the West/Southwest
Temperature 12°C
Humidity 88%
Pressure 1020 hPa
Visibility 10 km or more
no clouds below 1500 m and no cumulonimbus

METAR: EGDY 252320Z 24005KT CAVOK 12/10 Q1020 NOSIG RMK BLU BLU

Time: 00:52 (23:52 UTC)

Forecast

The report was made 7 hours and 9 minutes ago, at 16:43 UTC
Forecast valid from 25 at 18 UTC to 26 at 03 UTC
Wind 10 kt from the West
Visibility 10 km or more
Scattered clouds at a height of 2500 ft
Becoming
from 25 at 23 UTC to 26 at 01 UTC
Broken clouds at a height of 2000 ft

TAF: EGDY 251643Z 2518/2603 28010KT 9999 SCT025 BECMG 2523/2601 BKN020

Weather observations and forecasts of more than 4000 airports (METAR and TAF reports).

The available stations are represented by yellow and red dots on the map.

Hover mouse over dot to see the name of the station.

Then click to see weather observations and forecasts.

To change the map : click on the green buttons with a black cross to zoom in, on the green button with a dash to zoom out, or on the green arrows for adjacent maps.


METAR-TAF: